Time;durP1;ratioP1;P1;durP2;ratioP2;P2;SDS_P1;SDS_P2;PMS_P1;PMS_P2;Temp;Humidity;BMP_temperature;BMP_pressure;BME280_temperature;BME280_humidity;BME280_pressure;Samples;Min_cycle;Max_cycle;Signal;HPM_P1;HPM_P2
2022/09/12 00:00:36;;;;;;;4.90;2.20;;;;;;;;;;110047;1253;37742;-33
2022/09/12 00:03:28;;;;;;;4.40;1.90;;;;;;;;;;110028;1253;37203;-35
2022/09/12 00:05:58;;;;;;;4.70;2.20;;;;;;;;;;109996;1252;36291;-36
2022/09/12 00:08:29;;;;;;;4.70;2.20;;;;;;;;;;110043;1252;36391;-36
2022/09/12 00:11:07;;;;;;;4.60;2.10;;;;;;;;;;110037;1252;36458;-36
2022/09/12 00:13:39;;;;;;;4.00;2.00;;;;;;;;;;110070;1252;36597;-36
2022/09/12 00:16:22;;;;;;;4.40;1.80;;;;;;;;;;109964;1252;36214;-36
2022/09/12 00:18:53;;;;;;;4.30;2.20;;;;;;;;;;110025;1253;36693;-36
2022/09/12 00:21:24;;;;;;;4.50;1.90;;;;;;;;;;109980;1253;36312;-36
2022/09/12 00:23:55;;;;;;;4.50;2.30;;;;;;;;;;109997;1253;34851;-36
2022/09/12 00:26:26;;;;;;;3.70;2.00;;;;;;;;;;109980;1252;33940;-36
2022/09/12 00:28:57;;;;;;;4.00;2.10;;;;;;;;;;110042;1252;36588;-36
2022/09/12 00:31:28;;;;;;;4.40;2.00;;;;;;;;;;110013;1252;36428;-36
2022/09/12 00:34:00;;;;;;;4.00;1.80;;;;;;;;;;110043;1252;36477;-36
2022/09/12 00:36:32;;;;;;;4.10;2.10;;;;;;;;;;109973;1252;36182;-36
2022/09/12 00:39:03;;;;;;;4.70;2.10;;;;;;;;;;109981;1253;36824;-36
2022/09/12 00:41:36;;;;;;;4.80;2.20;;;;;;;;;;110009;1253;36683;-36
2022/09/12 00:44:38;;;;;;;4.10;2.10;;;;;;;;;;109990;1253;34976;-36
2022/09/12 00:47:17;;;;;;;3.30;1.80;;;;;;;;;;110003;1252;36499;-36
2022/09/12 00:49:52;;;;;;;3.50;1.70;;;;;;;;;;110115;1252;34740;-36
2022/09/12 00:52:27;;;;;;;4.00;1.80;;;;;;;;;;110082;1252;36912;-36
2022/09/12 00:55:01;;;;;;;3.60;1.80;;;;;;;;;;110065;1252;36263;-36
2022/09/12 00:57:38;;;;;;;4.10;1.80;;;;;;;;;;110031;1252;36543;-34
2022/09/12 01:00:14;;;;;;;3.50;1.80;;;;;;;;;;110047;1253;36937;-34
2022/09/12 01:02:48;;;;;;;3.80;2.00;;;;;;;;;;109985;1253;36207;-34
2022/09/12 01:05:21;;;;;;;4.00;2.10;;;;;;;;;;110030;1253;34738;-33
2022/09/12 01:07:52;;;;;;;4.50;2.20;;;;;;;;;;110027;1252;36148;-33
2022/09/12 01:10:24;;;;;;;4.20;2.00;;;;;;;;;;110068;1252;38633;-33
2022/09/12 01:12:56;;;;;;;4.70;2.10;;;;;;;;;;110066;1253;36151;-33
2022/09/12 01:15:28;;;;;;;3.10;1.60;;;;;;;;;;110084;1252;36639;-33
2022/09/12 01:18:12;;;;;;;4.20;2.00;;;;;;;;;;110021;1253;36632;-33
2022/09/12 01:21:00;;;;;;;4.30;1.80;;;;;;;;;;110021;1253;36920;-33
2022/09/12 01:24:04;;;;;;;5.20;2.10;;;;;;;;;;110033;1253;35076;-33
2022/09/12 01:26:57;;;;;;;3.80;1.90;;;;;;;;;;110014;1252;36786;-33
2022/09/12 01:30:11;;;;;;;4.80;1.90;;;;;;;;;;110084;1252;36683;-33
2022/09/12 01:32:48;;;;;;;;;;;;;;;;;;110075;1253;36268;-33
2022/09/12 01:35:25;;;;;;;4.20;2.00;;;;;;;;;;110069;1252;36178;-33
2022/09/12 01:38:08;;;;;;;4.20;2.10;;;;;;;;;;110004;1252;34042;-33
2022/09/12 01:40:49;;;;;;;3.80;1.80;;;;;;;;;;110018;1253;34931;-33
2022/09/12 01:43:31;;;;;;;3.90;1.90;;;;;;;;;;110024;1253;34044;-35
2022/09/12 01:46:10;;;;;;;3.70;2.10;;;;;;;;;;110023;1253;37069;-35
2022/09/12 01:48:46;;;;;;;3.20;1.60;;;;;;;;;;110010;1253;36729;-36
2022/09/12 01:51:23;;;;;;;3.80;1.80;;;;;;;;;;110070;1252;36543;-36
2022/09/12 01:53:58;;;;;;;4.20;2.00;;;;;;;;;;110070;1253;36211;-36
2022/09/12 01:56:32;;;;;;;5.70;2.10;;;;;;;;;;110058;1253;35082;-36
2022/09/12 01:59:08;;;;;;;4.50;2.20;;;;;;;;;;109983;1253;36124;-36
2022/09/12 02:01:46;;;;;;;4.70;2.30;;;;;;;;;;110032;1253;35538;-36
2022/09/12 02:04:21;;;;;;;3.70;1.80;;;;;;;;;;110019;1253;36124;-33
2022/09/12 02:06:55;;;;;;;4.50;2.10;;;;;;;;;;110023;1253;34771;-33
2022/09/12 02:09:34;;;;;;;3.40;1.70;;;;;;;;;;109981;1252;36761;-33
2022/09/12 02:12:09;;;;;;;3.60;1.80;;;;;;;;;;110083;1253;34695;-33
2022/09/12 02:14:44;;;;;;;4.00;2.00;;;;;;;;;;110036;1252;36628;-33
2022/09/12 02:17:18;;;;;;;4.30;1.90;;;;;;;;;;110045;1253;36722;-33
2022/09/12 02:19:55;;;;;;;4.50;1.80;;;;;;;;;;110067;1253;36628;-33
2022/09/12 02:22:29;;;;;;;3.60;1.80;;;;;;;;;;110062;1252;36291;-33
2022/09/12 02:25:06;;;;;;;4.50;2.00;;;;;;;;;;110068;1253;34693;-33
2022/09/12 02:27:41;;;;;;;4.60;1.80;;;;;;;;;;110055;1252;36716;-33
2022/09/12 02:30:15;;;;;;;4.00;1.70;;;;;;;;;;109954;1253;38264;-33
2022/09/12 02:33:00;;;;;;;4.20;1.80;;;;;;;;;;110045;1253;36377;-33
2022/09/12 02:35:40;;;;;;;4.20;1.90;;;;;;;;;;110021;1253;34854;-33
2022/09/12 02:38:18;;;;;;;3.80;1.60;;;;;;;;;;110013;1253;35076;-33
2022/09/12 02:40:50;;;;;;;4.00;1.90;;;;;;;;;;110044;1253;36263;-33
2022/09/12 02:43:25;;;;;;;4.30;2.10;;;;;;;;;;110027;1253;38266;-33
2022/09/12 02:45:56;;;;;;;3.40;1.70;;;;;;;;;;110092;1253;37729;-33
2022/09/12 02:48:30;;;;;;;4.20;1.80;;;;;;;;;;110005;1253;34808;-33
2022/09/12 02:51:02;;;;;;;4.10;2.00;;;;;;;;;;110008;1253;36654;-33
2022/09/12 02:53:34;;;;;;;4.40;2.10;;;;;;;;;;110016;1253;36560;-33
2022/09/12 02:56:12;;;;;;;3.50;1.80;;;;;;;;;;110027;1253;36504;-33
2022/09/12 02:58:43;;;;;;;4.20;2.10;;;;;;;;;;109966;1253;33931;-33
2022/09/12 03:01:28;;;;;;;4.00;1.80;;;;;;;;;;110043;1253;36839;-33
2022/09/12 03:04:19;;;;;;;3.40;1.60;;;;;;;;;;110040;1253;33484;-33
2022/09/12 03:07:00;;;;;;;4.50;2.10;;;;;;;;;;110050;1253;36901;-33
2022/09/12 03:09:43;;;;;;;4.70;1.80;;;;;;;;;;109997;1253;36135;-33
2022/09/12 03:12:26;;;;;;;3.50;1.80;;;;;;;;;;109999;1253;36799;-33
2022/09/12 03:15:19;;;;;;;3.40;1.90;;;;;;;;;;110046;1253;36709;-33
2022/09/12 03:18:05;;;;;;;4.10;1.70;;;;;;;;;;110013;1253;36633;-33
2022/09/12 03:20:50;;;;;;;3.50;1.70;;;;;;;;;;110023;1253;35793;-33
2022/09/12 03:23:30;;;;;;;3.10;1.70;;;;;;;;;;110057;1253;36166;-33
2022/09/12 03:26:08;;;;;;;3.30;1.60;;;;;;;;;;110057;1253;36173;-33
2022/09/12 03:28:40;;;;;;;3.70;2.00;;;;;;;;;;110032;1253;36591;-33
2022/09/12 03:31:16;;;;;;;3.40;1.70;;;;;;;;;;109948;1253;36541;-33
2022/09/12 03:33:47;;;;;;;3.20;1.70;;;;;;;;;;110008;1253;35832;-33
2022/09/12 03:36:22;;;;;;;3.80;1.90;;;;;;;;;;110018;1253;36832;-33
2022/09/12 03:38:54;;;;;;;4.00;2.00;;;;;;;;;;110020;1253;36115;-33
2022/09/12 03:41:24;;;;;;;3.20;1.80;;;;;;;;;;110001;1252;36483;-33
2022/09/12 03:43:55;;;;;;;3.70;2.00;;;;;;;;;;110030;1253;34818;-33
2022/09/12 03:46:27;;;;;;;3.50;1.80;;;;;;;;;;110075;1253;34750;-33
2022/09/12 03:48:57;;;;;;;3.80;1.80;;;;;;;;;;110035;1253;36549;-33
2022/09/12 03:51:28;;;;;;;3.70;1.90;;;;;;;;;;109975;1254;35657;-33
2022/09/12 03:53:59;;;;;;;4.40;2.10;;;;;;;;;;109973;1253;34970;-33
2022/09/12 03:56:30;;;;;;;4.30;1.90;;;;;;;;;;110015;1253;36168;-33
2022/09/12 03:59:01;;;;;;;3.60;1.90;;;;;;;;;;110030;1253;37173;-33
2022/09/12 04:01:32;;;;;;;4.30;1.90;;;;;;;;;;109985;1253;34853;-33
2022/09/12 04:04:03;;;;;;;3.90;1.80;;;;;;;;;;110086;1253;34455;-33
2022/09/12 04:06:34;;;;;;;4.10;1.90;;;;;;;;;;110030;1253;36246;-33
2022/09/12 04:09:05;;;;;;;4.20;1.80;;;;;;;;;;110050;1252;36224;-33
2022/09/12 04:11:36;;;;;;;4.30;1.90;;;;;;;;;;110050;1254;35764;-33
2022/09/12 04:14:07;;;;;;;3.70;1.60;;;;;;;;;;110016;1253;36570;-33
2022/09/12 04:16:37;;;;;;;4.30;1.80;;;;;;;;;;110014;1253;36691;-33
2022/09/12 04:19:10;;;;;;;4.00;1.90;;;;;;;;;;109992;1253;36524;-33
2022/09/12 04:21:41;;;;;;;4.30;2.00;;;;;;;;;;110036;1254;34035;-33
2022/09/12 04:24:11;;;;;;;4.20;2.00;;;;;;;;;;109996;1254;36281;-33
2022/09/12 04:26:42;;;;;;;3.90;1.80;;;;;;;;;;110049;1254;36719;-33
2022/09/12 04:29:17;;;;;;;3.80;1.90;;;;;;;;;;110031;1253;34992;-33
2022/09/12 04:31:49;;;;;;;4.80;1.80;;;;;;;;;;109991;1253;35792;-33
2022/09/12 04:34:20;;;;;;;5.10;2.00;;;;;;;;;;110019;1253;36294;-33
2022/09/12 04:36:51;;;;;;;3.70;1.80;;;;;;;;;;110044;1254;37461;-33
2022/09/12 04:39:22;;;;;;;5.40;2.00;;;;;;;;;;110025;1253;36572;-33
2022/09/12 04:41:53;;;;;;;4.10;2.20;;;;;;;;;;110018;1253;36565;-33
2022/09/12 04:44:24;;;;;;;5.20;2.30;;;;;;;;;;110065;1254;34974;-33
2022/09/12 04:46:55;;;;;;;7.10;2.80;;;;;;;;;;110031;1253;36860;-33
2022/09/12 04:49:26;;;;;;;5.20;2.60;;;;;;;;;;110042;1253;34506;-33
2022/09/12 04:51:56;;;;;;;6.20;3.00;;;;;;;;;;109995;1253;35091;-33
2022/09/12 04:54:27;;;;;;;5.80;2.90;;;;;;;;;;109995;1253;36688;-33
2022/09/12 04:56:58;;;;;;;5.90;2.70;;;;;;;;;;110017;1253;34761;-33
2022/09/12 04:59:29;;;;;;;6.50;2.90;;;;;;;;;;110027;1254;34732;-33
2022/09/12 05:02:00;;;;;;;6.60;3.00;;;;;;;;;;109996;1254;37128;-33
2022/09/12 05:04:31;;;;;;;4.70;2.60;;;;;;;;;;110046;1253;38339;-33
2022/09/12 05:07:02;;;;;;;5.20;2.80;;;;;;;;;;110040;1253;36549;-33
2022/09/12 05:09:33;;;;;;;6.20;2.80;;;;;;;;;;110044;1253;34989;-33
2022/09/12 05:12:06;;;;;;;7.80;3.10;;;;;;;;;;109965;1254;36170;-33
2022/09/12 05:14:37;;;;;;;5.30;2.70;;;;;;;;;;110017;1253;36547;-33
2022/09/12 05:17:08;;;;;;;5.30;2.80;;;;;;;;;;110017;1253;38120;-33
2022/09/12 05:19:39;;;;;;;5.70;2.60;;;;;;;;;;110030;1254;36634;-33
2022/09/12 05:22:10;;;;;;;7.10;3.00;;;;;;;;;;109984;1253;36578;-33
2022/09/12 05:24:42;;;;;;;6.40;2.80;;;;;;;;;;110055;1253;35603;-33
2022/09/12 05:27:13;;;;;;;6.10;2.90;;;;;;;;;;110076;1253;35701;-33
2022/09/12 05:29:44;;;;;;;6.40;2.80;;;;;;;;;;110047;1253;34978;-33
2022/09/12 05:32:14;;;;;;;5.10;2.90;;;;;;;;;;109981;1252;35012;-33
2022/09/12 05:34:46;;;;;;;5.40;2.90;;;;;;;;;;110001;1254;36626;-33
2022/09/12 05:37:16;;;;;;;6.50;3.10;;;;;;;;;;109994;1254;36365;-33
2022/09/12 05:39:47;;;;;;;7.20;2.80;;;;;;;;;;110003;1254;37089;-33
2022/09/12 05:42:18;;;;;;;6.10;2.80;;;;;;;;;;109987;1253;36813;-33
2022/09/12 05:44:49;;;;;;;5.00;2.30;;;;;;;;;;110015;1253;36166;-35
2022/09/12 05:47:21;;;;;;;5.20;2.70;;;;;;;;;;110046;1253;36514;-36
2022/09/12 05:49:51;;;;;;;5.20;2.70;;;;;;;;;;110039;1253;36702;-36
2022/09/12 05:52:22;;;;;;;4.90;2.50;;;;;;;;;;110006;1253;35728;-36
2022/09/12 05:54:55;;;;;;;5.20;2.50;;;;;;;;;;110010;1253;36245;-36
2022/09/12 05:57:29;;;;;;;5.30;3.00;;;;;;;;;;110006;1253;36215;-36
2022/09/12 06:00:00;;;;;;;4.40;2.40;;;;;;;;;;109983;1253;36604;-36
2022/09/12 06:02:30;;;;;;;5.70;2.70;;;;;;;;;;109977;1253;36655;-36
2022/09/12 06:05:01;;;;;;;6.10;2.60;;;;;;;;;;109943;1253;35793;-36
2022/09/12 06:07:31;;;;;;;4.70;2.60;;;;;;;;;;109957;1252;36582;-36
2022/09/12 06:10:05;;;;;;;5.10;2.50;;;;;;;;;;109963;1253;36714;-36
2022/09/12 06:12:38;;;;;;;4.40;2.30;;;;;;;;;;109950;1253;36266;-36
2022/09/12 06:15:10;;;;;;;4.90;2.40;;;;;;;;;;109975;1253;35260;-36
2022/09/12 06:17:41;;;;;;;4.80;2.80;;;;;;;;;;109981;1253;36742;-36
2022/09/12 06:20:14;;;;;;;5.50;2.80;;;;;;;;;;109957;1253;36562;-36
2022/09/12 06:22:44;;;;;;;4.40;2.50;;;;;;;;;;109923;1253;34804;-36
2022/09/12 06:25:15;;;;;;;4.80;2.60;;;;;;;;;;109971;1253;36728;-36
2022/09/12 06:27:46;;;;;;;6.60;2.50;;;;;;;;;;110058;1253;36610;-36
2022/09/12 06:30:17;;;;;;;5.00;2.40;;;;;;;;;;110024;1253;36871;-36
2022/09/12 06:32:49;;;;;;;6.40;2.70;;;;;;;;;;109990;1253;36332;-38
2022/09/12 06:35:20;;;;;;;4.40;2.60;;;;;;;;;;109979;1253;36713;-38
2022/09/12 06:37:55;;;;;;;4.90;2.50;;;;;;;;;;110034;1254;36750;-37
2022/09/12 06:40:28;;;;;;;6.20;2.30;;;;;;;;;;110008;1253;36590;-37
2022/09/12 06:42:59;;;;;;;6.30;2.70;;;;;;;;;;109973;1253;35000;-37
2022/09/12 06:45:33;;;;;;;4.80;2.70;;;;;;;;;;110037;1254;36551;-38
2022/09/12 06:48:06;;;;;;;5.70;2.60;;;;;;;;;;110022;1253;38250;-37
2022/09/12 06:50:36;;;;;;;5.60;2.60;;;;;;;;;;110042;1253;35243;-38
2022/09/12 06:53:09;;;;;;;6.80;2.60;;;;;;;;;;110000;1253;36285;-37
2022/09/12 06:55:39;;;;;;;5.40;2.60;;;;;;;;;;109981;1253;36162;-37
2022/09/12 06:58:10;;;;;;;5.30;3.00;;;;;;;;;;110009;1253;35145;-37
2022/09/12 07:00:40;;;;;;;4.60;2.20;;;;;;;;;;109987;1253;35840;-38
2022/09/12 07:03:11;;;;;;;5.70;2.40;;;;;;;;;;109988;1254;36755;-38
2022/09/12 07:05:41;;;;;;;5.00;2.60;;;;;;;;;;110031;1253;36582;-37
2022/09/12 07:08:12;;;;;;;4.70;2.80;;;;;;;;;;110019;1253;35667;-38
2022/09/12 07:10:42;;;;;;;5.90;2.60;;;;;;;;;;110017;1253;36199;-38
2022/09/12 07:13:13;;;;;;;5.10;2.30;;;;;;;;;;110022;1253;36140;-37
2022/09/12 07:15:44;;;;;;;4.50;2.30;;;;;;;;;;109622;1253;444328;-37
2022/09/12 07:18:14;;;;;;;5.00;2.40;;;;;;;;;;109992;1254;36453;-37
2022/09/12 07:20:45;;;;;;;4.50;2.60;;;;;;;;;;110024;1253;36701;-37
2022/09/12 07:23:15;;;;;;;5.30;2.70;;;;;;;;;;109996;1254;36578;-37
2022/09/12 07:25:55;;;;;;;4.90;2.40;;;;;;;;;;109997;1253;34955;-38
2022/09/12 07:28:27;;;;;;;4.80;2.70;;;;;;;;;;110027;1253;36217;-37
2022/09/12 07:31:05;;;;;;;4.80;2.60;;;;;;;;;;109999;1253;36559;-37
2022/09/12 07:33:36;;;;;;;5.80;3.30;;;;;;;;;;110021;1252;36629;-37
2022/09/12 07:36:10;;;;;;;4.40;2.10;;;;;;;;;;109959;1254;36538;-37
2022/09/12 07:38:41;;;;;;;5.10;2.50;;;;;;;;;;110050;1253;34546;-38
2022/09/12 07:41:17;;;;;;;4.90;2.20;;;;;;;;;;109998;1253;36452;-38
2022/09/12 07:43:51;;;;;;;4.70;2.20;;;;;;;;;;110009;1253;35616;-38
2022/09/12 07:46:22;;;;;;;4.90;2.10;;;;;;;;;;110011;1253;39873;-37
2022/09/12 07:48:54;;;;;;;4.20;2.20;;;;;;;;;;110027;1253;36294;-37
2022/09/12 07:51:26;;;;;;;5.10;2.50;;;;;;;;;;110015;1252;36636;-37
2022/09/12 07:53:57;;;;;;;4.60;2.10;;;;;;;;;;110035;1253;36643;-37
2022/09/12 07:56:29;;;;;;;5.50;2.40;;;;;;;;;;109985;1253;36384;-37
2022/09/12 07:59:02;;;;;;;5.00;2.30;;;;;;;;;;110009;1254;36166;-37
2022/09/12 08:01:34;;;;;;;4.70;2.40;;;;;;;;;;110022;1253;36691;-37
2022/09/12 08:04:04;;;;;;;6.10;2.30;;;;;;;;;;110021;1253;36381;-37
2022/09/12 08:06:36;;;;;;;4.90;2.30;;;;;;;;;;109991;1253;35007;-37
2022/09/12 08:09:08;;;;;;;4.70;2.20;;;;;;;;;;110025;1252;34773;-37
2022/09/12 08:11:39;;;;;;;4.90;2.20;;;;;;;;;;110081;1253;36741;-38
2022/09/12 08:14:09;;;;;;;4.50;2.30;;;;;;;;;;110046;1253;35378;-37
2022/09/12 08:16:40;;;;;;;4.70;2.50;;;;;;;;;;109993;1253;34968;-37
2022/09/12 08:19:10;;;;;;;4.80;2.20;;;;;;;;;;110017;1253;36199;-37
2022/09/12 08:21:41;;;;;;;4.30;2.00;;;;;;;;;;110004;1254;36578;-37
2022/09/12 08:24:14;;;;;;;4.60;2.00;;;;;;;;;;110032;1253;35288;-37
2022/09/12 08:26:45;;;;;;;4.80;2.30;;;;;;;;;;110009;1253;34919;-37
2022/09/12 08:29:16;;;;;;;4.90;2.20;;;;;;;;;;110048;1253;36694;-37
2022/09/12 08:31:47;;;;;;;4.30;1.80;;;;;;;;;;110034;1252;36763;-37
2022/09/12 08:34:19;;;;;;;4.50;2.10;;;;;;;;;;110029;1253;37111;-38
2022/09/12 08:36:53;;;;;;;4.60;2.30;;;;;;;;;;109950;1253;37804;-37
2022/09/12 08:39:24;;;;;;;4.20;2.10;;;;;;;;;;110009;1253;36675;-37
2022/09/12 08:42:02;;;;;;;4.20;2.00;;;;;;;;;;110000;1253;36751;-37
2022/09/12 08:44:50;;;;;;;5.40;2.20;;;;;;;;;;109983;1253;37807;-38
2022/09/12 08:47:30;;;;;;;3.70;2.00;;;;;;;;;;110038;1253;38074;-38
2022/09/12 08:50:12;;;;;;;3.80;2.10;;;;;;;;;;110070;1253;35795;-37
2022/09/12 08:52:50;;;;;;;4.70;2.00;;;;;;;;;;110016;1253;36638;-38
2022/09/12 08:55:31;;;;;;;4.10;2.00;;;;;;;;;;110020;1252;36121;-38
2022/09/12 08:58:05;;;;;;;3.90;1.80;;;;;;;;;;109985;1253;37078;-38
2022/09/12 09:00:47;;;;;;;5.10;2.00;;;;;;;;;;109994;1253;36659;-38
2022/09/12 09:03:56;;;;;;;4.10;2.00;;;;;;;;;;109998;1253;35536;-38
2022/09/12 09:06:46;;;;;;;4.60;2.00;;;;;;;;;;109963;1253;37866;-38
2022/09/12 09:09:25;;;;;;;3.70;1.90;;;;;;;;;;109977;1254;36796;-38
2022/09/12 09:12:05;;;;;;;4.70;1.90;;;;;;;;;;109983;1252;36865;-38
2022/09/12 09:14:53;;;;;;;4.00;2.00;;;;;;;;;;110002;1252;36567;-38
2022/09/12 09:17:30;;;;;;;4.50;2.00;;;;;;;;;;109964;1253;35309;-38
2022/09/12 09:20:12;;;;;;;4.10;2.00;;;;;;;;;;110022;1252;36413;-37
2022/09/12 09:22:50;;;;;;;4.50;2.00;;;;;;;;;;109995;1253;35072;-37
2022/09/12 09:25:25;;;;;;;4.00;2.20;;;;;;;;;;109962;1252;37066;-38
2022/09/12 09:28:04;;;;;;;4.10;2.00;;;;;;;;;;109983;1253;36876;-38
2022/09/12 09:30:36;;;;;;;4.50;1.90;;;;;;;;;;110015;1252;36133;-37
2022/09/12 09:33:15;;;;;;;4.90;2.20;;;;;;;;;;110009;1253;37958;-38
2022/09/12 09:35:51;;;;;;;5.10;2.40;;;;;;;;;;109969;1253;36942;-38
2022/09/12 09:38:33;;;;;;;4.40;2.20;;;;;;;;;;109971;1253;34202;-38
2022/09/12 09:41:28;;;;;;;3.50;2.00;;;;;;;;;;109993;1253;36729;-38
2022/09/12 09:44:01;;;;;;;4.50;2.10;;;;;;;;;;110003;1253;34771;-38
2022/09/12 09:46:33;;;;;;;3.70;2.10;;;;;;;;;;109984;1253;36141;-37
2022/09/12 09:49:06;;;;;;;3.80;2.10;;;;;;;;;;109996;1252;36200;-37
2022/09/12 09:51:40;;;;;;;3.60;1.90;;;;;;;;;;110014;1252;38373;-37
2022/09/12 09:54:20;;;;;;;5.00;2.10;;;;;;;;;;110059;1253;36611;-37
2022/09/12 09:56:51;;;;;;;3.80;2.30;;;;;;;;;;109970;1253;35057;-37
2022/09/12 09:59:27;;;;;;;4.20;2.10;;;;;;;;;;109999;1253;39578;-38
2022/09/12 10:02:02;;;;;;;3.90;1.90;;;;;;;;;;109973;1253;36690;-38
2022/09/12 10:04:35;;;;;;;3.80;1.90;;;;;;;;;;109993;1253;36669;-37
2022/09/12 10:07:06;;;;;;;4.30;2.20;;;;;;;;;;109945;1253;36022;-38
2022/09/12 10:09:37;;;;;;;3.80;2.00;;;;;;;;;;110041;1252;43482;-37
2022/09/12 10:12:28;;;;;;;5.00;2.00;;;;;;;;;;110021;1252;36666;-37
2022/09/12 10:15:01;;;;;;;4.40;2.30;;;;;;;;;;110019;1252;36661;-38
2022/09/12 10:17:31;;;;;;;;;;;;;;;;;;109972;1252;35421;-37
2022/09/12 10:20:02;;;;;;;4.00;2.10;;;;;;;;;;109977;1253;34334;-37
2022/09/12 10:22:33;;;;;;;4.10;2.10;;;;;;;;;;109995;1253;36229;-37
2022/09/12 10:25:16;;;;;;;4.40;2.20;;;;;;;;;;109999;1253;36698;-37
2022/09/12 10:27:55;;;;;;;3.70;2.00;;;;;;;;;;109931;1252;36498;-37
2022/09/12 10:30:29;;;;;;;4.60;2.20;;;;;;;;;;110015;1252;37103;-37
2022/09/12 10:33:08;;;;;;;5.00;2.20;;;;;;;;;;109998;1252;35789;-38
2022/09/12 10:35:49;;;;;;;4.80;2.30;;;;;;;;;;110001;1252;36727;-38
2022/09/12 10:38:26;;;;;;;3.50;2.00;;;;;;;;;;109955;1252;35187;-38
2022/09/12 10:41:02;;;;;;;4.20;2.00;;;;;;;;;;110024;1253;36581;-38
2022/09/12 10:43:37;;;;;;;4.70;2.30;;;;;;;;;;109999;1253;36976;-38
2022/09/12 10:46:23;;;;;;;4.60;2.20;;;;;;;;;;110014;1253;35735;-37
2022/09/12 10:49:20;;;;;;;3.60;1.90;;;;;;;;;;109994;1252;37921;-38
2022/09/12 10:51:51;;;;;;;4.30;2.10;;;;;;;;;;110028;1252;36262;-37
2022/09/12 10:54:27;;;;;;;3.60;2.10;;;;;;;;;;110041;1252;36321;-37
2022/09/12 10:57:34;;;;;;;3.90;2.00;;;;;;;;;;110002;1252;34916;-37
2022/09/12 11:00:14;;;;;;;4.50;2.10;;;;;;;;;;109951;1253;36218;-38
2022/09/12 11:02:57;;;;;;;3.90;2.00;;;;;;;;;;110012;1253;36646;-37
2022/09/12 11:05:49;;;;;;;4.10;2.00;;;;;;;;;;109990;1253;37032;-38
2022/09/12 11:08:36;;;;;;;3.70;2.10;;;;;;;;;;109990;1253;36491;-38
2022/09/12 11:11:14;;;;;;;4.10;2.10;;;;;;;;;;110027;1253;35814;-37
2022/09/12 11:14:09;;;;;;;4.10;2.20;;;;;;;;;;110033;1253;34900;-37
2022/09/12 11:16:48;;;;;;;3.90;1.90;;;;;;;;;;110034;1252;35055;-37
2022/09/12 11:19:42;;;;;;;3.80;2.00;;;;;;;;;;110020;1252;36060;-38
2022/09/12 11:22:25;;;;;;;3.30;1.80;;;;;;;;;;110028;1253;35180;-38
2022/09/12 11:25:14;;;;;;;4.80;2.10;;;;;;;;;;109996;1253;36315;-37
2022/09/12 11:28:06;;;;;;;4.10;1.90;;;;;;;;;;110032;1253;36636;-37
2022/09/12 11:30:45;;;;;;;3.90;2.00;;;;;;;;;;109981;1252;36190;-38
2022/09/12 11:33:28;;;;;;;3.60;2.10;;;;;;;;;;110032;1253;36544;-37
2022/09/12 11:36:04;;;;;;;4.20;2.10;;;;;;;;;;110037;1252;36607;-37
2022/09/12 11:39:09;;;;;;;4.10;2.50;;;;;;;;;;110019;1252;36604;-37
2022/09/12 11:41:43;;;;;;;3.90;2.20;;;;;;;;;;109493;1253;36472;-38
2022/09/12 11:44:19;;;;;;;4.10;2.20;;;;;;;;;;110018;1253;35831;-38
2022/09/12 11:46:50;;;;;;;4.80;2.10;;;;;;;;;;109971;1253;35655;-38
2022/09/12 11:49:33;;;;;;;4.40;2.00;;;;;;;;;;109959;1253;34895;-38
2022/09/12 11:52:04;;;;;;;;;;;;;;;;;;109988;1253;36253;-37
2022/09/12 11:54:41;;;;;;;4.20;2.00;;;;;;;;;;110017;1253;35808;-37
2022/09/12 11:57:20;;;;;;;4.30;2.00;;;;;;;;;;110055;1253;35692;-38
2022/09/12 11:59:56;;;;;;;3.80;2.10;;;;;;;;;;110023;1253;35158;-38
2022/09/12 12:02:29;;;;;;;4.50;2.50;;;;;;;;;;110002;1253;36671;-37
2022/09/12 12:05:22;;;;;;;3.80;1.80;;;;;;;;;;110015;1252;36728;-36
2022/09/12 12:07:59;;;;;;;3.90;2.10;;;;;;;;;;110063;1252;36166;-36
2022/09/12 12:10:37;;;;;;;4.30;2.20;;;;;;;;;;109981;1253;36803;-36
2022/09/12 12:13:16;;;;;;;4.50;2.20;;;;;;;;;;109999;1253;36694;-36
2022/09/12 12:15:51;;;;;;;3.90;2.20;;;;;;;;;;110012;1253;36279;-36
2022/09/12 12:18:24;;;;;;;4.20;2.20;;;;;;;;;;110021;1253;36900;-36
2022/09/12 12:21:17;;;;;;;3.70;2.30;;;;;;;;;;109982;1253;34804;-36
2022/09/12 12:24:11;;;;;;;3.80;2.10;;;;;;;;;;110065;1252;36528;-36
2022/09/12 12:27:02;;;;;;;3.90;2.00;;;;;;;;;;110041;1252;34032;-36
2022/09/12 12:29:41;;;;;;;3.90;2.10;;;;;;;;;;110083;1252;36269;-36
2022/09/12 12:32:28;;;;;;;3.70;2.30;;;;;;;;;;109917;1253;36511;-36
2022/09/12 12:35:35;;;;;;;4.20;2.30;;;;;;;;;;110012;1252;35399;-36
2022/09/12 12:38:26;;;;;;;4.20;2.00;;;;;;;;;;110078;1252;35516;-38
2022/09/12 12:41:33;;;;;;;3.90;1.90;;;;;;;;;;110070;1252;36202;-38
2022/09/12 12:44:48;;;;;;;3.80;2.10;;;;;;;;;;110075;1253;34654;-38
2022/09/12 12:47:22;;;;;;;3.40;1.90;;;;;;;;;;110045;1253;33921;-37
2022/09/12 12:49:59;;;;;;;4.70;1.90;;;;;;;;;;110066;1253;36604;-37
2022/09/12 12:52:43;;;;;;;4.90;2.40;;;;;;;;;;110065;1252;36094;-37
2022/09/12 12:55:21;;;;;;;4.50;2.30;;;;;;;;;;110057;1252;36583;-37
2022/09/12 12:57:54;;;;;;;5.20;2.50;;;;;;;;;;110025;1252;36480;-37
2022/09/12 13:00:33;;;;;;;5.30;2.40;;;;;;;;;;109896;1252;36539;-37
2022/09/12 13:03:21;;;;;;;6.20;2.80;;;;;;;;;;110001;1252;35031;-37
2022/09/12 13:06:02;;;;;;;4.80;2.40;;;;;;;;;;109992;1253;36686;-37
2022/09/12 13:08:35;;;;;;;4.90;2.70;;;;;;;;;;110046;1253;35029;-37
2022/09/12 13:11:11;;;;;;;6.10;2.60;;;;;;;;;;110020;1253;36258;-37
2022/09/12 13:13:48;;;;;;;5.50;2.50;;;;;;;;;;110000;1253;34953;-37
2022/09/12 13:16:34;;;;;;;4.90;2.40;;;;;;;;;;110093;1253;36684;-37
2022/09/12 13:19:13;;;;;;;4.40;2.60;;;;;;;;;;110076;1252;34965;-37
2022/09/12 13:21:56;;;;;;;4.70;2.30;;;;;;;;;;110058;1252;35319;-37
2022/09/12 13:24:25;;;;;;;;;;;;;;;;;;109990;1253;34975;-37
2022/09/12 13:26:56;;;;;;;;;;;;;;;;;;110029;1253;36303;-37
2022/09/12 13:29:26;;;;;;;;;;;;;;;;;;110051;1253;35959;-37
2022/09/12 13:31:56;;;;;;;;;;;;;;;;;;110036;1253;34419;-37
2022/09/12 13:34:28;;;;;;;;;;;;;;;;;;110042;1252;34392;-37
2022/09/12 13:37:14;;;;;;;;;;;;;;;;;;110068;1252;36211;-37
2022/09/12 13:39:48;;;;;;;;;;;;;;;;;;110080;1252;36560;-37
2022/09/12 13:42:34;;;;;;;;;;;;;;;;;;110090;1253;35996;-37
2022/09/12 13:45:06;;;;;;;;;;;;;;;;;;110141;1252;42744;-37
2022/09/12 13:47:36;;;;;;;;;;;;;;;;;;109926;1252;36120;-37
2022/09/12 13:50:07;;;;;;;;;;;;;;;;;;110027;1252;35737;-37
2022/09/12 13:52:38;;;;;;;;;;;;;;;;;;110070;1252;36352;-37
2022/09/12 13:55:14;;;;;;;;;;;;;;;;;;110047;1253;35614;-37
2022/09/12 13:57:43;;;;;;;;;;;;;;;;;;110052;1253;36399;-37
2022/09/12 14:00:18;;;;;;;;;;;;;;;;;;110018;1253;36240;-37
2022/09/12 14:02:48;;;;;;;;;;;;;;;;;;110036;1253;36125;-37
2022/09/12 14:05:23;;;;;;;;;;;;;;;;;;110030;1252;34915;-37
2022/09/12 14:07:55;;;;;;;;;;;;;;;;;;110057;1252;36246;-37
2022/09/12 14:10:29;;;;;;;;;;;;;;;;;;110041;1252;36204;-37
2022/09/12 14:12:58;;;;;;;;;;;;;;;;;;110050;1252;34592;-37
2022/09/12 14:15:30;;;;;;;;;;;;;;;;;;109979;1253;36245;-37
2022/09/12 14:18:00;;;;;;;;;;;;;;;;;;110027;1253;35568;-37
2022/09/12 14:20:32;;;;;;;;;;;;;;;;;;110016;1253;36205;-37
2022/09/12 14:23:02;;;;;;;;;;;;;;;;;;110027;1253;34843;-37
2022/09/12 14:25:40;;;;;;;;;;;;;;;;;;110017;1252;38744;-37
2022/09/12 14:28:13;;;;;;;;;;;;;;;;;;110042;1252;35715;-37
2022/09/12 14:30:43;;;;;;;;;;;;;;;;;;110035;1252;36394;-37
2022/09/12 14:33:21;;;;;;;;;;;;;;;;;;110064;1252;35889;-37
2022/09/12 14:35:51;;;;;;;;;;;;;;;;;;109978;1253;35827;-37
2022/09/12 14:38:31;;;;;;;;;;;;;;;;;;110026;1252;36294;-37
2022/09/12 14:41:01;;;;;;;;;;;;;;;;;;110090;1252;36284;-37
2022/09/12 14:43:34;;;;;;;;;;;;;;;;;;110057;1252;34780;-37
2022/09/12 14:46:05;;;;;;;;;;;;;;;;;;110013;1252;37343;-37
2022/09/12 14:48:39;;;;;;;;;;;;;;;;;;110030;1252;36317;-37
2022/09/12 14:51:19;;;;;;;;;;;;;;;;;;110074;1252;36160;-37
2022/09/12 14:53:49;;;;;;;;;;;;;;;;;;110041;1252;35831;-37
2022/09/12 14:56:20;;;;;;;;;;;;;;;;;;109972;1253;35779;-37
2022/09/12 14:58:50;;;;;;;;;;;;;;;;;;110013;1253;36286;-37
2022/09/12 15:01:28;;;;;;;;;;;;;;;;;;110046;1253;36287;-37
2022/09/12 15:03:57;;;;;;;;;;;;;;;;;;110052;1253;33107;-37
2022/09/12 15:06:29;;;;;;;;;;;;;;;;;;110004;1252;36224;-37
2022/09/12 15:09:00;;;;;;;;;;;;;;;;;;110031;1252;36216;-37
2022/09/12 15:11:29;;;;;;;;;;;;;;;;;;110064;1252;35781;-37
2022/09/12 15:13:58;;;;;;;;;;;;;;;;;;110027;1252;35775;-37
2022/09/12 15:16:27;;;;;;;;;;;;;;;;;;109617;1252;473288;-37
2022/09/12 15:18:56;;;;;;;;;;;;;;;;;;110039;1253;34934;-37
2022/09/12 15:21:25;;;;;;;;;;;;;;;;;;110006;1253;34482;-37
2022/09/12 15:23:55;;;;;;;;;;;;;;;;;;110034;1253;34562;-37
2022/09/12 15:26:26;;;;;;;;;;;;;;;;;;110034;1252;36264;-37
2022/09/12 15:28:58;;;;;;;;;;;;;;;;;;110050;1252;36311;-37
2022/09/12 15:31:29;;;;;;;;;;;;;;;;;;110002;1252;35978;-37
2022/09/12 15:33:58;;;;;;;;;;;;;;;;;;110028;1252;35825;-37
2022/09/12 15:36:28;;;;;;;;;;;;;;;;;;109977;1252;35940;-37